Time;durP1;ratioP1;P1;durP2;ratioP2;P2;SDS_P1;SDS_P2;PMS_P1;PMS_P2;Temp;Humidity;BMP_temperature;BMP_pressure;BME280_temperature;BME280_humidity;BME280_pressure;Samples;Min_cycle;Max_cycle;Signal;HPM_P1;HPM_P2
2023/11/14 00:02:17;;;;;;;84.10;33.90;;;;;;;0.32;100.00;100783.58;106192;1291;58119;-84
2023/11/14 00:04:43;;;;;;;91.40;37.30;;;;;;;0.38;100.00;100783.43;106318;1290;58239;-86
2023/11/14 00:07:08;;;;;;;78.80;33.60;;;;;;;0.43;100.00;100787.97;106319;1290;58073;-85
2023/11/14 00:09:34;;;;;;;78.10;34.70;;;;;;;0.46;100.00;100790.73;106239;1291;58206;-86
2023/11/14 00:15:21;;;;;;;94.50;36.80;;;;;;;0.56;100.00;100793.36;106197;1291;60821;-84
2023/11/14 00:21:09;;;;;;;76.70;34.20;;;;;;;0.67;100.00;100778.08;106790;1286;73634;-85
2023/11/14 00:33:40;;;;;;;70.40;29.80;;;;;;;0.95;100.00;100765.46;106759;1286;60101;-85
2023/11/14 00:36:06;;;;;;;67.00;29.60;;;;;;;0.97;100.00;100762.38;106773;1286;58354;-89
2023/11/14 00:38:31;;;;;;;68.90;30.80;;;;;;;1.01;100.00;100759.39;106489;1286;58324;-85
2023/11/14 00:40:57;;;;;;;63.20;27.80;;;;;;;1.07;100.00;100761.80;106332;1286;58271;-84
2023/11/14 00:43:23;;;;;;;78.20;31.80;;;;;;;1.13;100.00;100759.97;106527;1286;58228;-85
2023/11/14 00:45:48;;;;;;;79.20;34.50;;;;;;;1.20;100.00;100762.65;106534;1286;59091;-85
2023/11/14 00:48:14;;;;;;;70.60;31.00;;;;;;;1.25;100.00;100767.08;106278;1290;58562;-86
2023/11/14 00:50:39;;;;;;;69.10;30.00;;;;;;;1.30;100.00;100765.73;106092;1289;58282;-86
2023/11/14 00:53:05;;;;;;;84.20;33.30;;;;;;;1.34;100.00;100765.06;106165;1289;58279;-90
2023/11/14 00:58:52;;;;;;;93.20;35.20;;;;;;;1.45;100.00;100766.91;106408;1290;73627;-86
2023/11/14 01:01:19;;;;;;;69.90;30.40;;;;;;;1.50;100.00;100768.41;106337;1289;58698;-84
2023/11/14 01:03:45;;;;;;;78.40;31.00;;;;;;;1.53;100.00;100766.71;106187;1290;58376;-85
2023/11/14 01:06:10;;;;;;;74.80;31.20;;;;;;;1.56;100.00;100766.65;106290;1290;58504;-85
2023/11/14 01:08:36;;;;;;;63.50;28.80;;;;;;;1.59;100.00;100771.73;106382;1289;58730;-85
2023/11/14 01:11:01;;;;;;;68.00;27.70;;;;;;;1.63;100.00;100770.48;106240;1289;58400;-85
2023/11/14 01:13:27;;;;;;;64.90;27.90;;;;;;;1.65;100.00;100769.42;106141;1292;58323;-82
2023/11/14 01:15:53;;;;;;;62.00;26.90;;;;;;;1.67;100.00;100774.89;106096;1292;60716;-86
2023/11/14 01:18:18;;;;;;;53.80;24.90;;;;;;;1.69;100.00;100774.77;105968;1291;58386;-84
2023/11/14 01:20:44;;;;;;;54.50;25.80;;;;;;;1.72;100.00;100773.80;106243;1289;58589;-85
2023/11/14 01:23:10;;;;;;;57.20;25.30;;;;;;;1.78;100.00;100775.66;106100;1292;58360;-85
2023/11/14 01:28:57;;;;;;;72.80;32.10;;;;;;;1.90;100.00;100774.41;106396;1289;59913;-83
2023/11/14 01:31:22;;;;;;;78.40;32.50;;;;;;;1.94;100.00;100766.05;106272;1290;58243;-84
2023/11/14 01:37:09;;;;;;;65.40;27.10;;;;;;;2.07;100.00;100765.08;106367;1291;73290;-84
2023/11/14 01:46:18;;;;;;;63.40;27.60;;;;;;;2.18;100.00;100768.14;106456;1286;58991;-83
2023/11/14 01:48:47;;;;;;;86.50;33.40;;;;;;;2.19;100.00;100762.20;106755;1286;58317;-85
2023/11/14 01:51:13;;;;;;;67.70;30.00;;;;;;;2.23;100.00;100761.76;106642;1286;74248;-85
2023/11/14 01:53:40;;;;;;;64.00;29.50;;;;;;;2.24;100.00;100759.16;106569;1286;72464;-85
2023/11/14 02:02:48;;;;;;;63.20;29.60;;;;;;;2.34;100.00;100760.20;106814;1285;72491;-86
2023/11/14 02:05:20;;;;;;;74.10;32.00;;;;;;;2.35;100.00;100759.34;106608;1286;58421;-86
2023/11/14 02:07:46;;;;;;;61.50;30.50;;;;;;;2.39;100.00;100760.77;106480;1288;72627;-87
2023/11/14 02:10:12;;;;;;;74.10;32.20;;;;;;;2.42;100.00;100760.48;106510;1286;61874;-87
2023/11/14 02:12:38;;;;;;;67.90;29.90;;;;;;;2.47;100.00;100756.70;106568;1285;58570;-86
2023/11/14 02:15:05;;;;;;;68.20;30.80;;;;;;;2.53;100.00;100756.84;106610;1286;58250;-87
2023/11/14 02:17:31;;;;;;;71.50;31.40;;;;;;;2.57;100.00;100755.49;106638;1285;58250;-87
2023/11/14 02:19:58;;;;;;;69.40;30.20;;;;;;;2.62;100.00;100757.54;106755;1286;58273;-85
2023/11/14 02:22:24;;;;;;;76.90;31.20;;;;;;;2.67;100.00;100757.95;106607;1286;58212;-88
2023/11/14 02:24:56;;;;;;;73.00;30.40;;;;;;;2.71;100.00;100757.17;106393;1289;58732;-88
2023/11/14 02:27:25;;;;;;;62.80;29.10;;;;;;;2.78;100.00;100760.08;106202;1291;74630;-87
2023/11/14 02:29:54;;;;;;;54.10;25.90;;;;;;;2.85;100.00;100776.63;106062;1292;74336;-87
2023/11/14 02:32:20;;;;;;;60.60;26.30;;;;;;;2.92;100.00;100777.45;106090;1291;73326;-88
2023/11/14 02:34:45;;;;;;;62.20;25.30;;;;;;;2.99;100.00;100781.83;106082;1292;58289;-90
2023/11/14 02:37:11;;;;;;;55.90;25.40;;;;;;;3.04;100.00;100779.61;105959;1292;58456;-87
2023/11/14 02:39:39;;;;;;;59.40;26.10;;;;;;;3.12;100.00;100780.84;106125;1292;58617;-87
2023/11/14 02:42:05;;;;;;;57.50;26.80;;;;;;;3.19;100.00;100779.16;106081;1292;58213;-88
2023/11/14 02:47:54;;;;;;;56.60;26.60;;;;;;;3.31;100.00;100775.20;105986;1294;59508;-87
2023/11/14 02:53:41;;;;;;;55.60;27.50;;;;;;;3.33;100.00;100766.97;106045;1294;72255;-88
2023/11/14 02:56:07;;;;;;;60.30;28.80;;;;;;;3.37;100.00;100761.14;105945;1292;58324;-86
2023/11/14 02:58:32;;;;;;;64.90;27.40;;;;;;;3.40;100.00;100756.91;106100;1290;58260;-87
2023/11/14 03:00:58;;;;;;;62.30;27.40;;;;;;;3.43;100.00;100756.63;106049;1293;58661;-85
2023/11/14 03:03:24;;;;;;;65.80;29.70;;;;;;;3.45;100.00;100757.08;105992;1293;58629;-87
2023/11/14 03:09:10;;;;;;;68.80;30.00;;;;;;;3.49;100.00;100755.02;106038;1294;71022;-87
2023/11/14 03:11:41;;;;;;;60.90;29.20;;;;;;;3.53;100.00;100759.10;106014;1293;59966;-86
2023/11/14 03:14:08;;;;;;;61.20;27.90;;;;;;;3.58;100.00;100758.64;106061;1295;61170;-85
2023/11/14 03:16:34;;;;;;;55.10;27.20;;;;;;;3.60;100.00;100757.19;106237;1291;74854;-87
2023/11/14 03:18:59;;;;;;;55.40;27.60;;;;;;;3.62;100.00;100752.23;106241;1291;58288;-86
2023/11/14 03:21:25;;;;;;;58.60;28.00;;;;;;;3.61;100.00;100752.11;106055;1293;58363;-89
2023/11/14 03:23:50;;;;;;;54.40;27.50;;;;;;;3.60;100.00;100752.52;106050;1292;58610;-87
2023/11/14 03:26:16;;;;;;;62.70;29.30;;;;;;;3.61;100.00;100750.80;106109;1293;58351;-85
2023/11/14 03:28:41;;;;;;;62.80;27.50;;;;;;;3.62;100.00;100751.77;106075;1292;74477;-87
2023/11/14 03:31:07;;;;;;;59.80;27.30;;;;;;;3.67;100.00;100750.70;106054;1294;58391;-84
2023/11/14 03:33:33;;;;;;;69.70;31.90;;;;;;;3.68;100.00;100752.86;106433;1288;58190;-86
2023/11/14 03:35:58;;;;;;;73.50;34.50;;;;;;;3.66;100.00;100755.20;106275;1289;58287;-85
2023/11/14 03:41:45;;;;;;;79.70;37.30;;;;;;;3.75;100.00;100755.79;106323;1290;72317;-87
2023/11/14 03:44:11;;;;;;;71.20;32.80;;;;;;;3.78;100.00;100753.27;106236;1291;58499;-86
2023/11/14 03:46:37;;;;;;;68.20;31.90;;;;;;;3.79;100.00;100753.80;106085;1291;58709;-84
2023/11/14 03:52:25;;;;;;;49.00;23.70;;;;;;;3.85;100.00;100766.82;106480;1286;71418;-86
2023/11/14 03:54:51;;;;;;;47.90;24.40;;;;;;;3.85;100.00;100760.55;106551;1286;73551;-85
2023/11/14 04:00:38;;;;;;;48.60;23.60;;;;;;;3.89;100.00;100759.23;106749;1286;60105;-85
2023/11/14 04:03:07;;;;;;;48.20;23.00;;;;;;;3.87;100.00;100755.17;106538;1286;58531;-86
2023/11/14 04:05:32;;;;;;;52.70;23.50;;;;;;;3.83;100.00;100752.35;106556;1285;74293;-86
2023/11/14 04:07:58;;;;;;;46.30;22.30;;;;;;;3.79;100.00;100744.95;106334;1289;58400;-85
2023/11/14 04:10:24;;;;;;;40.60;19.80;;;;;;;3.74;100.00;100745.67;106259;1289;58652;-86
2023/11/14 04:12:49;;;;;;;44.70;20.70;;;;;;;3.67;100.00;100743.64;106336;1289;58427;-87
2023/11/14 04:15:18;;;;;;;42.30;21.30;;;;;;;3.58;100.00;100736.70;106363;1289;58331;-86
2023/11/14 04:17:44;;;;;;;44.20;21.40;;;;;;;3.51;100.00;100742.88;106308;1289;72358;-86
2023/11/14 04:20:09;;;;;;;42.60;20.70;;;;;;;3.42;100.00;100740.77;106324;1289;58302;-85
2023/11/14 04:22:35;;;;;;;44.40;21.50;;;;;;;3.36;100.00;100745.61;106034;1288;58327;-87
2023/11/14 04:25:01;;;;;;;48.30;21.30;;;;;;;3.32;100.00;100745.45;106321;1289;58253;-86
2023/11/14 04:27:26;;;;;;;42.10;20.10;;;;;;;3.30;100.00;100742.15;106261;1289;58601;-84
2023/11/14 04:29:52;;;;;;;43.70;21.70;;;;;;;3.31;100.00;100740.05;106319;1289;58430;-86
2023/11/14 04:32:17;;;;;;;44.90;21.10;;;;;;;3.31;100.00;100737.14;106359;1289;58332;-84
2023/11/14 04:34:46;;;;;;;41.00;19.70;;;;;;;3.32;100.00;100744.93;106365;1289;58396;-86
2023/11/14 04:37:12;;;;;;;45.90;21.00;;;;;;;3.32;100.00;100742.31;106384;1289;73407;-86
2023/11/14 04:39:38;;;;;;;48.10;22.40;;;;;;;3.32;100.00;100740.09;106400;1286;58292;-85
2023/11/14 04:42:07;;;;;;;46.30;21.50;;;;;;;3.35;100.00;100744.96;106775;1285;58625;-86
2023/11/14 04:44:32;;;;;;;49.80;21.70;;;;;;;3.36;100.00;100744.05;106755;1286;61037;-86
2023/11/14 04:46:59;;;;;;;46.20;20.70;;;;;;;3.38;100.00;100744.95;106713;1286;58299;-83
2023/11/14 04:49:25;;;;;;;51.70;21.90;;;;;;;3.40;100.00;100747.73;106609;1285;58241;-89
2023/11/14 04:51:51;;;;;;;46.40;20.90;;;;;;;3.42;100.00;100752.77;106385;1289;58265;-86
2023/11/14 04:54:17;;;;;;;53.40;21.90;;;;;;;3.47;100.00;100755.59;106261;1289;58307;-87
2023/11/14 04:56:42;;;;;;;46.90;22.30;;;;;;;3.47;100.00;100749.65;106091;1292;58373;-86
2023/11/14 04:59:08;;;;;;;50.60;21.50;;;;;;;3.46;100.00;100747.27;105954;1291;58767;-84
2023/11/14 05:04:55;;;;;;;46.80;21.30;;;;;;;3.44;100.00;100754.73;106259;1291;59838;-86
2023/11/14 05:07:21;;;;;;;45.60;21.80;;;;;;;3.44;100.00;100761.98;106023;1291;58423;-86
2023/11/14 05:09:47;;;;;;;49.30;23.10;;;;;;;3.43;100.00;100762.84;106197;1291;58370;-86
2023/11/14 05:12:15;;;;;;;49.00;21.80;;;;;;;3.40;100.00;100758.92;106213;1291;58376;-86
2023/11/14 05:14:41;;;;;;;50.70;22.50;;;;;;;3.44;100.00;100759.53;106054;1294;58387;-86
2023/11/14 05:17:07;;;;;;;49.90;22.10;;;;;;;3.49;100.00;100762.35;105825;1293;59726;-88
2023/11/14 05:19:32;;;;;;;49.90;22.80;;;;;;;3.56;100.00;100766.38;106000;1295;58532;-86
2023/11/14 05:21:58;;;;;;;50.90;22.60;;;;;;;3.63;100.00;100771.94;106057;1293;58632;-84
2023/11/14 05:24:23;;;;;;;50.30;23.70;;;;;;;3.71;100.00;100772.17;106121;1293;58599;-86
2023/11/14 05:26:49;;;;;;;45.70;21.60;;;;;;;3.81;100.00;100777.29;105695;1297;61017;-87
2023/11/14 05:29:16;;;;;;;53.80;22.60;;;;;;;3.91;100.00;100783.08;105945;1293;58680;-87
2023/11/14 05:31:41;;;;;;;45.90;22.30;;;;;;;4.02;100.00;100785.05;106046;1293;58586;-87
2023/11/14 05:34:08;;;;;;;53.80;23.40;;;;;;;4.13;100.00;100786.55;105955;1292;58432;-84
2023/11/14 05:36:35;;;;;;;58.60;25.10;;;;;;;4.23;100.00;100790.33;105854;1293;58344;-86
2023/11/14 05:39:01;;;;;;;51.20;22.70;;;;;;;4.30;100.00;100792.34;105967;1293;58287;-86
2023/11/14 05:41:26;;;;;;;53.90;22.50;;;;;;;4.39;100.00;100787.12;106052;1294;58320;-85
2023/11/14 05:43:52;;;;;;;53.30;21.60;;;;;;;4.47;100.00;100785.15;106008;1293;58725;-86
2023/11/14 05:46:17;;;;;;;53.10;21.10;;;;;;;4.52;100.00;100790.09;106002;1296;58669;-84
2023/11/14 05:48:43;;;;;;;46.70;21.10;;;;;;;4.57;100.00;100787.59;106048;1293;61095;-86
2023/11/14 05:51:09;;;;;;;47.00;21.50;;;;;;;4.61;100.00;100788.01;106059;1292;58417;-85
2023/11/14 05:53:35;;;;;;;50.70;22.40;;;;;;;4.65;100.00;100789.84;105925;1293;58284;-87
2023/11/14 05:56:00;;;;;;;43.30;20.70;;;;;;;4.72;100.00;100793.52;105871;1292;59202;-86
2023/11/14 05:58:40;;;;;;;42.90;20.10;;;;;;;4.76;100.00;100790.30;105922;1294;58441;-86
2023/11/14 06:05:10;;;;;;;40.30;19.40;;;;;;;4.94;100.00;100776.27;106294;1289;58979;-86
2023/11/14 06:07:36;;;;;;;41.40;18.80;;;;;;;5.13;100.00;100780.05;106306;1289;74544;-88
2023/11/14 06:10:05;;;;;;;42.70;19.20;;;;;;;5.26;100.00;100781.17;106234;1294;59197;-86
2023/11/14 06:12:49;;;;;;;;;;;;;;;;;;;;;
2023/11/14 06:15:18;;;;;;;35.60;18.20;;;;;;;5.49;100.00;100781.64;106078;1292;60354;-87
2023/11/14 06:41:16;;;;;;;33.20;16.80;;;;;;;7.07;100.00;100767.10;106402;1288;72977;-87
2023/11/14 06:50:25;;;;;;;34.00;15.80;;;;;;;9.24;100.00;100768.27;106314;1288;58655;-89
2023/11/14 06:52:50;;;;;;;30.60;15.10;;;;;;;10.23;100.00;100766.03;106281;1288;58319;-89
2023/11/14 06:55:18;;;;;;;30.30;14.60;;;;;;;11.31;100.00;100763.24;106434;1288;58600;-92
2023/11/14 07:01:12;;;;;;;28.00;13.80;;;;;;;14.06;100.00;100758.82;106379;1288;58339;-86
2023/11/14 07:06:59;;;;;;;22.10;12.70;;;;;;;17.18;100.00;100759.88;106480;1288;73741;-89
2023/11/14 07:09:26;;;;;;;27.80;13.80;;;;;;;18.61;100.00;100753.94;106209;1294;58625;-90
2023/11/14 07:11:54;;;;;;;29.40;15.90;;;;;;;19.25;89.50;100750.44;105951;1295;58297;-90
2023/11/14 07:14:22;;;;;;;28.00;15.40;;;;;;;19.71;77.82;100752.52;105583;1299;59985;-90
2023/11/14 07:16:51;;;;;;;29.50;15.20;;;;;;;20.59;78.78;100749.72;105569;1299;61216;-87
2023/11/14 07:22:41;;;;;;;31.60;15.90;;;;;;;22.62;67.88;100752.15;105860;1296;73471;-87
2023/11/14 07:25:10;;;;;;;29.80;15.70;;;;;;;22.92;57.11;100744.44;105809;1296;73294;-92
2023/11/14 07:27:45;;;;;;;32.20;14.90;;;;;;;23.05;56.59;100740.17;105829;1297;59042;-87
2023/11/14 07:30:13;;;;;;;31.40;15.40;;;;;;;23.81;56.64;100735.82;105847;1296;60235;-87
2023/11/14 07:32:51;;;;;;;32.60;14.70;;;;;;;24.55;56.01;100734.10;105792;1296;74716;-89
2023/11/14 07:35:26;;;;;;;26.40;14.50;;;;;;;25.46;52.86;100736.48;105764;1297;74319;-91
2023/11/14 07:38:08;;;;;;;28.80;14.40;;;;;;;26.23;48.78;100740.14;105579;1297;72636;-88
2023/11/14 07:40:40;;;;;;;27.00;13.70;;;;;;;26.35;46.29;100740.63;105571;1297;60514;-89
2023/11/14 07:43:06;;;;;;;26.40;14.50;;;;;;;26.18;42.83;100738.39;105768;1297;59264;-88
2023/11/14 07:45:32;;;;;;;28.90;15.50;;;;;;;25.72;43.18;100733.55;105753;1294;58437;-88
2023/11/14 07:47:58;;;;;;;34.60;15.20;;;;;;;26.26;44.63;100738.15;105942;1292;58566;-85
2023/11/14 07:53:49;;;;;;;25.50;15.50;;;;;;;27.77;42.34;100740.19;105870;1292;416185;-87
2023/11/14 07:59:47;;;;;;;;;;;;;;;;;;;;;
2023/11/14 08:02:22;;;;;;;23.50;13.50;;;;;;;28.84;40.02;100736.17;106257;1290;74907;-85
2023/11/14 08:04:51;;;;;;;23.20;13.30;;;;;;;29.12;39.36;100739.54;106182;1292;73679;-87
2023/11/14 08:07:19;;;;;;;25.00;13.60;;;;;;;29.68;38.63;100741.90;106551;1288;61107;-88
2023/11/14 08:09:54;;;;;;;26.10;12.70;;;;;;;30.27;38.71;100741.85;106502;1289;60976;-86
2023/11/14 08:12:20;;;;;;;22.40;12.70;;;;;;;30.78;37.76;100735.27;106425;1288;74381;-86
2023/11/14 08:14:45;;;;;;;23.50;12.80;;;;;;;30.89;36.10;100740.80;106686;1288;58546;-86
2023/11/14 08:17:11;;;;;;;23.20;13.60;;;;;;;30.14;34.41;100738.58;106530;1286;58672;-86
2023/11/14 08:19:37;;;;;;;30.70;14.60;;;;;;;28.38;35.52;100741.77;106338;1288;58208;-87
2023/11/14 08:22:08;;;;;;;24.00;12.90;;;;;;;26.19;36.15;100740.33;106937;1285;58325;-86
2023/11/14 08:24:34;;;;;;;32.30;15.40;;;;;;;24.06;38.67;100737.19;107032;1285;75220;-85
2023/11/14 08:27:48;;;;;;;32.40;14.80;;;;;;;22.42;41.07;100736.39;106999;1285;59127;-84
2023/11/14 08:30:27;;;;;;;30.70;15.10;;;;;;;20.44;43.55;100732.77;106779;1285;72419;-83
2023/11/14 08:32:58;;;;;;;26.00;14.30;;;;;;;19.35;46.04;100735.85;107018;1286;59217;-82
2023/11/14 08:35:37;;;;;;;;;;;;;;;;;;;;;
2023/11/14 08:44:55;;;;;;;31.80;15.20;;;;;;;15.97;56.02;100734.08;105860;1298;72351;-82
2023/11/14 08:57:42;;;;;;;25.30;13.90;;;;;;;13.41;84.97;100716.14;105353;1302;73351;-82
2023/11/14 09:00:13;;;;;;;29.10;12.50;;;;;;;13.15;92.05;100711.63;105208;1305;72844;-80
2023/11/14 09:02:44;;;;;;;28.30;12.60;;;;;;;12.94;97.36;100716.05;105035;1303;59245;-80
2023/11/14 09:05:22;;;;;;;;;;;;;;;;;;;;;
2023/11/14 09:07:48;;;;;;;27.90;11.90;;;;;;;12.47;100.00;100723.19;104263;1308;72481;-79
2023/11/14 09:10:14;;;;;;;27.30;11.20;;;;;;;12.20;100.00;100720.23;104468;1309;58668;-83
2023/11/14 09:12:49;;;;;;;29.20;11.70;;;;;;;11.98;100.00;100718.19;104501;1308;58319;-82
2023/11/14 09:15:17;;;;;;;27.30;11.20;;;;;;;11.85;100.00;100710.52;104634;1308;59378;-84
2023/11/14 09:17:43;;;;;;;25.90;11.30;;;;;;;11.66;100.00;100709.73;104719;1309;60249;-84
2023/11/14 09:23:31;;;;;;;25.90;10.30;;;;;;;11.41;100.00;100707.68;105381;1303;72487;-83
2023/11/14 09:26:09;;;;;;;;;;;;;;;;;;;;;
2023/11/14 09:28:41;;;;;;;24.30;8.80;;;;;;;11.26;100.00;100697.90;105766;1296;61779;-87
2023/11/14 09:34:29;;;;;;;23.40;9.90;;;;;;;11.12;100.00;100691.45;105854;1295;73473;-82
2023/11/14 09:37:02;;;;;;;23.60;9.10;;;;;;;11.08;100.00;100682.19;105884;1291;73377;-83
2023/11/14 09:39:28;;;;;;;23.50;10.10;;;;;;;11.02;100.00;100684.74;106210;1288;73493;-82
2023/11/14 09:48:58;;;;;;;;;;;;;;;;;;;;;
2023/11/14 09:51:44;;;;;;;26.90;10.10;;;;;;;10.91;100.00;100671.80;106241;1286;73792;-83
2023/11/14 09:54:15;;;;;;;26.80;9.40;;;;;;;10.91;100.00;100670.77;106622;1284;72754;-81
2023/11/14 09:56:45;;;;;;;23.90;8.80;;;;;;;10.90;100.00;100675.99;106458;1284;62561;-82
2023/11/14 09:59:11;;;;;;;23.00;8.50;;;;;;;10.90;100.00;100674.54;106793;1284;60201;-83
2023/11/14 10:01:39;;;;;;;16.20;7.20;;;;;;;10.89;100.00;100670.92;106789;1286;58559;-79
2023/11/14 10:04:10;;;;;;;15.90;7.10;;;;;;;10.89;100.00;100669.73;107022;1285;73926;-83
2023/11/14 10:06:42;;;;;;;19.10;8.00;;;;;;;10.94;100.00;100667.06;106988;1284;72142;-83
2023/11/14 10:09:31;;;;;;;;;;;;;;;;;;;;;
2023/11/14 10:12:04;;;;;;;17.70;7.40;;;;;;;11.00;100.00;100652.86;106587;1288;61321;-88
2023/11/14 10:15:00;;;;;;;14.50;7.20;;;;;;;11.02;100.00;100650.77;106295;1288;74186;-85
2023/11/14 10:17:31;;;;;;;19.20;7.90;;;;;;;11.07;100.00;100649.34;106136;1288;71644;-90
2023/11/14 10:24:10;;;;;;;15.40;7.40;;;;;;;11.22;100.00;100634.42;102861;1289;602437;-82
2023/11/14 10:27:01;;;;;;;;;;;;;;;;;;;;;
2023/11/14 10:29:29;;;;;;;13.60;6.80;;;;;;;11.32;100.00;100631.45;102809;1290;61223;-87
2023/11/14 10:32:00;;;;;;;13.70;6.90;;;;;;;11.40;100.00;100627.65;102949;1290;71399;-83
2023/11/14 10:34:29;;;;;;;15.60;6.50;;;;;;;11.38;100.00;100629.36;105817;1298;73874;-88
2023/11/14 10:44:38;;;;;;;;;;;;;;;;;;;;;
2023/11/14 10:47:10;;;;;;;8.30;4.40;;;;;;;11.34;100.00;100614.23;103602;1321;71972;-82
2023/11/14 11:13:32;;;;;;;;;;;;;;;;;;;;;
2023/11/14 11:23:08;;;;;;;9.90;4.80;;;;;;;11.17;100.00;100595.23;104634;1309;73367;-82
2023/11/14 11:32:40;;;;;;;;;;;;;;;;;;;;;
2023/11/14 11:45:35;;;;;;;12.10;4.90;;;;;;;10.81;100.00;100598.13;106735;1286;61641;-82
2023/11/14 11:52:04;;;;;;;15.90;6.20;;;;;;;10.80;100.00;100582.27;106729;1285;72951;-83
2023/11/14 11:58:40;;;;;;;14.90;5.70;;;;;;;10.76;100.00;100575.30;106222;1291;72405;-84
2023/11/14 12:05:20;;;;;;;;;;;;;;;;;;;;;
2023/11/14 12:07:51;;;;;;;10.50;5.00;;;;;;;10.72;100.00;100551.39;105782;1297;75236;-84
2023/11/14 12:20:32;;;;;;;;;;;;;;;;;;;;;
2023/11/14 12:23:04;;;;;;;17.50;8.20;;;;;;;10.46;100.00;100521.45;104114;1315;73471;-85
2023/11/14 12:29:03;;;;;;;13.20;6.40;;;;;;;10.37;100.00;100507.77;104516;1310;71135;-83
2023/11/14 12:31:38;;;;;;;;;;;;;;;;;;;;;
2023/11/14 12:34:08;;;;;;;12.40;6.30;;;;;;;10.40;100.00;100503.69;104586;1312;61799;-86
2023/11/14 12:40:31;;;;;;;10.80;6.00;;;;;;;10.47;100.00;100503.63;104513;1311;72155;-84
2023/11/14 12:46:58;;;;;;;;;;;;;;;;;;;;;
2023/11/14 12:56:22;;;;;;;27.50;15.90;;;;;;;10.30;100.00;100483.80;105432;1296;73493;-84
2023/11/14 12:59:07;;;;;;;;;;;;;;;;;;;;;
2023/11/14 13:01:37;;;;;;;17.10;9.10;;;;;;;10.23;100.00;100478.56;105566;1301;60809;-84
2023/11/14 13:04:52;;;;;;;;;;;;;;;;;;;;;
2023/11/14 13:10:30;;;;;;;;;;;;;;;;;;;;;
2023/11/14 13:16:21;;;;;;;18.10;8.80;;;;;;;10.06;100.00;100483.25;105837;1296;60412;-88
2023/11/14 13:19:01;;;;;;;12.00;7.50;;;;;;;10.04;100.00;100481.08;105789;1295;60506;-92
2023/11/14 13:21:39;;;;;;;;;;;;;;;;;;;;;
2023/11/14 13:24:28;;;;;;;;;;;;;;;;;;;;;
2023/11/14 13:27:04;;;;;;;;;;;;;;;;;;;;;
2023/11/14 13:29:33;;;;;;;15.90;9.00;;;;;;;9.88;100.00;100479.35;105892;1294;62679;-83
2023/11/14 13:35:28;;;;;;;18.30;8.00;;;;;;;9.83;100.00;100477.70;106147;1291;72825;-82
2023/11/14 13:37:56;;;;;;;17.20;8.20;;;;;;;9.75;100.00;100477.31;106205;1291;73154;-83
2023/11/14 13:40:53;;;;;;;20.50;8.60;;;;;;;9.73;100.00;100480.48;106201;1291;71979;-84
2023/11/14 13:43:24;;;;;;;15.50;8.70;;;;;;;9.71;100.00;100487.56;105630;1297;60863;-79
2023/11/14 13:45:50;;;;;;;16.80;8.80;;;;;;;9.65;100.00;100484.45;105729;1300;59881;-81
2023/11/14 13:48:20;;;;;;;17.00;8.20;;;;;;;9.61;100.00;100482.69;105717;1298;57991;-83
2023/11/14 13:50:48;;;;;;;14.40;8.20;;;;;;;9.57;100.00;100480.93;105861;1295;73116;-83
2023/11/14 13:53:16;;;;;;;15.80;9.40;;;;;;;9.53;100.00;100481.29;105743;1295;73487;-83
2023/11/14 13:55:43;;;;;;;18.00;11.00;;;;;;;9.51;100.00;100475.13;105692;1295;62315;-83
2023/11/14 13:58:09;;;;;;;17.60;8.20;;;;;;;9.49;100.00;100478.39;105761;1295;60169;-83
2023/11/14 14:00:46;;;;;;;16.60;8.70;;;;;;;9.48;100.00;100473.70;105746;1298;58652;-87
2023/11/14 14:03:12;;;;;;;19.50;10.90;;;;;;;9.49;100.00;100472.24;105579;1297;74351;-85
2023/11/14 14:08:59;;;;;;;32.90;15.90;;;;;;;9.46;100.00;100460.02;105510;1298;60205;-80
2023/11/14 14:11:26;;;;;;;47.20;18.40;;;;;;;9.39;100.00;100451.61;105539;1299;58274;-82
2023/11/14 14:13:52;;;;;;;39.10;15.30;;;;;;;9.27;100.00;100440.05;105602;1298;58220;-82
2023/11/14 14:16:20;;;;;;;39.70;16.50;;;;;;;9.19;100.00;100431.42;105544;1300;58424;-83
2023/11/14 14:18:46;;;;;;;29.70;13.30;;;;;;;9.13;100.00;100426.58;105550;1298;73793;-83
2023/11/14 14:21:13;;;;;;;34.20;14.30;;;;;;;9.07;100.00;100420.46;106092;1289;58324;-82
2023/11/14 14:23:50;;;;;;;29.40;13.10;;;;;;;8.99;100.00;100412.90;106352;1289;59187;-82
2023/11/14 14:29:49;;;;;;;14.30;7.90;;;;;;;8.74;100.00;100409.63;106336;1289;73364;-85
2023/11/14 14:32:22;;;;;;;17.60;9.10;;;;;;;8.66;100.00;100404.48;106609;1285;73410;-81
2023/11/14 14:35:11;;;;;;;;;;;;;;;;;;;;;
2023/11/14 15:46:34;;;;;;;36.50;16.00;;;;;;;7.20;100.00;100278.21;106394;1264;73076;-82
2023/11/14 15:49:13;;;;;;;23.30;8.10;;;;;;;7.19;100.00;100267.59;109562;1259;61780;-80
2023/11/14 15:55:15;;;;;;;12.80;6.00;;;;;;;7.20;100.00;100243.00;109503;1260;72713;-81
2023/11/14 15:57:56;;;;;;;;;;;;;;;;;;;;;
2023/11/14 16:00:37;;;;;;;;;;;;;;;;;;;;;
2023/11/14 16:03:15;;;;;;;10.60;5.50;;;;;;;7.08;100.00;100214.90;109479;1259;61335;-82
2023/11/14 16:05:50;;;;;;;;;;;;;;;;;;;;;
2023/11/14 16:08:16;;;;;;;30.80;16.40;;;;;;;7.05;100.00;100203.98;109495;1263;73459;-82
2023/11/14 16:10:48;;;;;;;30.40;16.20;;;;;;;7.02;100.00;100200.18;109389;1260;58283;-81
2023/11/14 16:13:18;;;;;;;131.00;69.60;;;;;;;7.06;100.00;100205.65;109004;1268;72669;-80
2023/11/14 16:15:44;;;;;;;54.60;31.30;;;;;;;7.09;100.00;100207.15;109105;1264;59928;-80
2023/11/14 16:18:15;;;;;;;41.10;23.40;;;;;;;7.07;100.00;100203.90;109051;1264;58143;-80
2023/11/14 16:20:52;;;;;;;;;;;;;;;;;;;;;
2023/11/14 16:26:41;;;;;;;19.10;8.20;;;;;;;7.03;100.00;100189.55;109126;1264;72327;-80
2023/11/14 16:29:10;;;;;;;14.60;7.90;;;;;;;6.98;100.00;100185.29;108967;1264;62398;-82
2023/11/14 16:35:01;;;;;;;23.80;10.40;;;;;;;7.02;100.00;100178.53;109112;1264;72666;-88
2023/11/14 16:37:31;;;;;;;16.60;8.10;;;;;;;7.00;100.00;100173.20;109109;1264;73602;-85
2023/11/14 16:39:57;;;;;;;18.90;10.10;;;;;;;6.99;100.00;100166.17;108883;1268;73333;-82
2023/11/14 16:42:24;;;;;;;34.20;13.60;;;;;;;6.98;100.00;100163.21;108896;1268;58532;-82
2023/11/14 16:45:08;;;;;;;;;;;;;;;;;;;;;
2023/11/14 16:47:46;;;;;;;;;;;;;;;;;;;;;
2023/11/14 16:50:15;;;;;;;23.70;10.10;;;;;;;7.01;100.00;100132.08;109019;1264;74916;-85
2023/11/14 16:52:51;;;;;;;19.90;9.20;;;;;;;6.99;100.00;100124.39;108979;1264;72551;-82
2023/11/14 16:55:20;;;;;;;21.70;10.70;;;;;;;7.01;100.00;100116.10;109058;1264;61967;-82
2023/11/14 16:58:07;;;;;;;21.30;10.10;;;;;;;7.02;100.00;100109.05;109157;1264;58790;-82
2023/11/14 17:01:09;;;;;;;;;;;;;;;;;;;;;
2023/11/14 17:03:41;;;;;;;26.00;11.90;;;;;;;7.05;100.00;100093.55;108836;1270;75028;-83
2023/11/14 17:06:37;;;;;;;26.30;10.90;;;;;;;7.06;100.00;100097.86;108744;1270;71705;-84
2023/11/14 17:09:25;;;;;;;19.20;9.30;;;;;;;7.08;100.00;100088.50;108809;1270;62030;-83
2023/11/14 17:18:25;;;;;;;;;;;;;;;;;;;;;
2023/11/14 17:21:20;;;;;;;29.50;12.10;;;;;;;7.09;100.00;100066.00;108516;1273;74175;-83
2023/11/14 17:27:20;;;;;;;;;;;;;;;;;;;;;
2023/11/14 17:30:14;;;;;;;32.80;13.30;;;;;;;7.11;100.00;100060.02;107998;1283;74503;-86
2023/11/14 17:36:11;;;;;;;25.80;10.40;;;;;;;7.18;100.00;100054.32;107510;1285;72359;-85
2023/11/14 17:38:57;;;;;;;21.40;10.00;;;;;;;7.23;100.00;100058.00;106897;1289;62636;-84
2023/11/14 17:41:27;;;;;;;34.80;13.80;;;;;;;7.30;100.00;100060.84;107155;1288;60334;-84
2023/11/14 17:47:21;;;;;;;23.30;11.20;;;;;;;7.27;100.00;100050.36;107294;1287;71671;-83
2023/11/14 17:52:57;;;;;;;18.90;9.10;;;;;;;7.31;100.00;100043.75;107943;1279;60886;-83
2023/11/14 17:55:40;;;;;;;17.50;8.00;;;;;;;7.35;100.00;100032.90;107881;1279;61489;-86
2023/11/14 17:58:19;;;;;;;17.00;8.00;;;;;;;7.41;100.00;100038.75;107942;1280;74067;-84
2023/11/14 18:01:16;;;;;;;39.70;14.70;;;;;;;7.44;100.00;100032.35;107654;1279;73332;-84